Time;durP1;ratioP1;P1;durP2;ratioP2;P2;SDS_P1;SDS_P2;PMS_P1;PMS_P2;Temp;Humidity;BMP_temperature;BMP_pressure;BME280_temperature;BME280_humidity;BME280_pressure;Samples;Min_cycle;Max_cycle;Signal;HPM_P1;HPM_P2
2022/06/30 00:01:20;;;;;;;10.90;4.15;;;;;;;;;;5034366;28;20032;-37
2022/06/30 00:03:46;;;;;;;6.80;3.65;;;;;;;;;;5034354;28;20018;-37
2022/06/30 00:06:11;;;;;;;7.35;3.70;;;;;;;;;;5034209;28;20017;-36
2022/06/30 00:08:36;;;;;;;4.93;3.45;;;;;;;;;;5034261;28;20022;-37
2022/06/30 00:11:06;;;;;;;5.75;3.83;;;;;;;;;;5032808;28;20044;-36
2022/06/30 00:13:35;;;;;;;8.40;3.80;;;;;;;;;;5034663;28;20083;-36
2022/06/30 00:16:01;;;;;;;;;;;;;;;;;;5032485;28;20380;-36
2022/06/30 00:18:26;;;;;;;7.30;3.43;;;;;;;;;;5033953;28;19919;-36
2022/06/30 00:20:51;;;;;;;5.50;3.67;;;;;;;;;;5033586;28;20017;-37
2022/06/30 00:23:17;;;;;;;7.25;3.75;;;;;;;;;;5034015;28;20475;-36
2022/06/30 00:25:42;;;;;;;6.25;3.92;;;;;;;;;;5034133;28;20028;-36
2022/06/30 00:28:07;;;;;;;10.07;3.80;;;;;;;;;;5033885;28;20033;-37
2022/06/30 00:30:33;;;;;;;5.80;3.58;;;;;;;;;;5033856;28;20032;-37
2022/06/30 00:32:58;;;;;;;9.00;3.47;;;;;;;;;;5033414;28;20143;-38
2022/06/30 00:35:23;;;;;;;9.70;3.80;;;;;;;;;;5033651;28;20706;-36
2022/06/30 00:37:48;;;;;;;9.32;4.55;;;;;;;;;;5033653;28;20325;-37
2022/06/30 00:40:14;;;;;;;6.60;4.45;;;;;;;;;;5033744;28;20014;-37
2022/06/30 00:42:39;;;;;;;6.10;3.58;;;;;;;;;;5033832;28;20456;-36
2022/06/30 00:45:05;;;;;;;6.05;3.90;;;;;;;;;;5033535;28;20041;-36
2022/06/30 00:47:30;;;;;;;8.13;3.95;;;;;;;;;;5032313;28;20465;-37
2022/06/30 00:49:56;;;;;;;7.85;4.57;;;;;;;;;;5033275;28;20025;-36
2022/06/30 00:52:23;;;;;;;9.35;4.53;;;;;;;;;;5033715;28;20037;-36
2022/06/30 00:54:51;;;;;;;5.15;3.83;;;;;;;;;;5033474;28;20025;-36
2022/06/30 00:57:17;;;;;;;6.97;3.47;;;;;;;;;;5033067;28;20109;-37
2022/06/30 00:59:44;;;;;;;4.00;3.58;;;;;;;;;;5033883;28;20095;-36
2022/06/30 01:02:10;;;;;;;4.72;3.65;;;;;;;;;;5032002;28;20033;-36
2022/06/30 01:04:37;;;;;;;6.35;3.85;;;;;;;;;;5033125;28;20014;-37
2022/06/30 01:07:02;;;;;;;5.53;3.70;;;;;;;;;;5033175;28;20416;-37
2022/06/30 01:14:57;;;;;;;8.02;3.95;;;;;;;;;;5032954;28;20060;-37
2022/06/30 01:17:22;;;;;;;5.00;3.78;;;;;;;;;;5032945;28;20021;-36
2022/06/30 01:19:54;;;;;;;7.07;3.88;;;;;;;;;;5033044;28;20027;-37
2022/06/30 01:22:20;;;;;;;9.35;4.53;;;;;;;;;;5031430;28;20033;-36
2022/06/30 01:24:45;;;;;;;8.73;3.92;;;;;;;;;;5032951;28;20071;-36
2022/06/30 01:27:11;;;;;;;6.20;3.45;;;;;;;;;;5033004;28;20029;-37
2022/06/30 01:29:36;;;;;;;5.22;3.90;;;;;;;;;;5032703;28;20026;-37
2022/06/30 01:32:02;;;;;;;6.40;4.07;;;;;;;;;;5032562;28;20046;-36
2022/06/30 01:34:27;;;;;;;6.70;4.13;;;;;;;;;;5032509;28;20056;-36
2022/06/30 01:36:52;;;;;;;7.65;4.35;;;;;;;;;;5031385;28;20021;-36
2022/06/30 01:39:18;;;;;;;8.15;4.22;;;;;;;;;;5032550;28;20021;-36
2022/06/30 01:41:43;;;;;;;5.15;4.15;;;;;;;;;;5032838;28;20057;-36
2022/06/30 01:44:11;;;;;;;5.40;4.28;;;;;;;;;;5032498;28;20017;-37
2022/06/30 01:46:36;;;;;;;6.75;3.90;;;;;;;;;;5030728;28;20056;-36
2022/06/30 01:49:02;;;;;;;6.35;4.80;;;;;;;;;;5032303;28;20056;-36
2022/06/30 01:51:27;;;;;;;5.93;3.85;;;;;;;;;;5032383;28;20104;-36
2022/06/30 01:53:53;;;;;;;5.57;4.05;;;;;;;;;;5031971;28;20018;-36
2022/06/30 01:56:18;;;;;;;8.07;4.00;;;;;;;;;;5032217;28;20515;-36
2022/06/30 01:58:44;;;;;;;7.45;4.40;;;;;;;;;;5032071;28;20018;-37
2022/06/30 02:01:09;;;;;;;8.18;3.95;;;;;;;;;;5032318;28;20060;-37
2022/06/30 02:03:34;;;;;;;6.70;3.33;;;;;;;;;;5032282;28;20096;-37
2022/06/30 02:06:00;;;;;;;11.00;4.72;;;;;;;;;;5031971;28;20049;-38
2022/06/30 02:08:25;;;;;;;5.85;3.60;;;;;;;;;;5032059;28;20496;-36
2022/06/30 02:10:50;;;;;;;15.57;4.38;;;;;;;;;;5031938;28;20072;-37
2022/06/30 02:13:16;;;;;;;10.98;4.30;;;;;;;;;;5031958;28;20114;-37
2022/06/30 02:15:41;;;;;;;18.98;4.30;;;;;;;;;;5031709;28;20028;-36
2022/06/30 02:18:08;;;;;;;8.90;3.80;;;;;;;;;;5032107;28;20724;-36
2022/06/30 02:20:34;;;;;;;11.40;4.00;;;;;;;;;;5032130;28;20024;-36
2022/06/30 02:23:00;;;;;;;6.30;3.70;;;;;;;;;;5030253;28;20113;-37
2022/06/30 02:25:26;;;;;;;12.75;4.18;;;;;;;;;;5032147;28;20021;-36
2022/06/30 02:27:52;;;;;;;10.98;3.60;;;;;;;;;;5031880;28;20032;-36
2022/06/30 02:30:18;;;;;;;9.65;4.47;;;;;;;;;;5031557;28;20408;-38
2022/06/30 02:32:43;;;;;;;5.97;4.18;;;;;;;;;;5031610;28;20132;-36
2022/06/30 02:35:09;;;;;;;9.75;3.80;;;;;;;;;;5031656;28;20029;-37
2022/06/30 02:37:35;;;;;;;11.60;4.20;;;;;;;;;;5031953;28;20032;-36
2022/06/30 02:40:00;;;;;;;11.60;4.22;;;;;;;;;;5031286;28;20026;-37
2022/06/30 02:42:26;;;;;;;9.70;4.38;;;;;;;;;;5031553;28;20365;-37
2022/06/30 02:44:51;;;;;;;14.18;4.70;;;;;;;;;;5031280;28;20028;-37
2022/06/30 02:47:16;;;;;;;10.10;3.90;;;;;;;;;;5031473;28;20502;-36
2022/06/30 02:49:42;;;;;;;7.53;3.90;;;;;;;;;;5031226;28;20022;-37
2022/06/30 02:52:07;;;;;;;8.25;4.65;;;;;;;;;;5031485;28;20476;-36
2022/06/30 02:54:33;;;;;;;18.40;4.13;;;;;;;;;;5031633;28;20021;-36
2022/06/30 02:56:58;;;;;;;10.32;3.92;;;;;;;;;;5031356;28;20021;-37
2022/06/30 02:59:24;;;;;;;9.88;4.47;;;;;;;;;;5031413;28;20028;-38
2022/06/30 03:01:49;;;;;;;13.70;4.25;;;;;;;;;;5031307;28;20030;-37
2022/06/30 03:04:15;;;;;;;12.52;4.45;;;;;;;;;;5031421;28;20029;-36
2022/06/30 03:06:40;;;;;;;10.73;4.20;;;;;;;;;;5031502;28;20017;-36
2022/06/30 03:09:06;;;;;;;12.30;4.25;;;;;;;;;;5030990;28;20400;-38
2022/06/30 03:11:32;;;;;;;8.55;4.30;;;;;;;;;;5031405;28;20018;-37
2022/06/30 03:13:57;;;;;;;8.68;4.03;;;;;;;;;;5029979;28;20033;-36
2022/06/30 03:16:22;;;;;;;11.73;4.15;;;;;;;;;;5031019;28;20075;-37
2022/06/30 03:18:48;;;;;;;6.00;4.13;;;;;;;;;;5031612;28;20536;-37
2022/06/30 03:21:13;;;;;;;8.07;3.80;;;;;;;;;;5030777;28;20021;-38
2022/06/30 03:23:39;;;;;;;14.70;4.25;;;;;;;;;;5031296;28;20063;-36
2022/06/30 03:26:05;;;;;;;6.10;3.63;;;;;;;;;;5031370;28;20026;-37
2022/06/30 03:28:30;;;;;;;8.30;4.25;;;;;;;;;;5031328;28;20025;-36
2022/06/30 03:30:56;;;;;;;5.72;3.70;;;;;;;;;;5031039;28;20022;-37
2022/06/30 03:33:21;;;;;;;4.63;3.90;;;;;;;;;;5030852;28;20171;-36
2022/06/30 03:35:47;;;;;;;7.00;4.20;;;;;;;;;;5031198;28;20456;-37
2022/06/30 03:38:13;;;;;;;11.55;4.07;;;;;;;;;;5031437;28;20025;-36
2022/06/30 03:40:39;;;;;;;13.98;3.90;;;;;;;;;;5031130;28;20021;-36
2022/06/30 03:43:05;;;;;;;4.95;3.70;;;;;;;;;;5031127;28;20524;-36
2022/06/30 03:45:30;;;;;;;4.20;3.53;;;;;;;;;;5030890;28;20101;-37
2022/06/30 03:47:55;;;;;;;10.90;4.18;;;;;;;;;;5031374;28;20025;-37
2022/06/30 03:50:21;;;;;;;5.85;3.72;;;;;;;;;;5031516;28;20374;-36
2022/06/30 03:52:46;;;;;;;6.68;3.50;;;;;;;;;;5032771;28;20033;-36
2022/06/30 03:55:12;;;;;;;8.25;4.13;;;;;;;;;;5034579;28;20057;-38
2022/06/30 03:57:37;;;;;;;9.57;3.95;;;;;;;;;;5034202;28;20025;-38
2022/06/30 04:00:04;;;;;;;7.07;4.53;;;;;;;;;;5034490;28;20515;-37
2022/06/30 04:02:29;;;;;;;4.75;3.30;;;;;;;;;;5034213;28;20033;-37
2022/06/30 04:04:54;;;;;;;9.63;3.78;;;;;;;;;;5034926;28;20047;-37
2022/06/30 04:07:20;;;;;;;6.60;3.78;;;;;;;;;;5032949;28;20033;-37
2022/06/30 04:09:45;;;;;;;59.10;6.20;;;;;;;;;;5034224;28;20018;-37
2022/06/30 04:12:10;;;;;;;30.02;5.22;;;;;;;;;;5034282;28;20040;-37
2022/06/30 04:14:36;;;;;;;20.02;4.93;;;;;;;;;;5034576;28;20036;-37
2022/06/30 04:17:01;;;;;;;24.10;4.50;;;;;;;;;;5033939;28;20143;-37
2022/06/30 04:19:27;;;;;;;10.70;3.85;;;;;;;;;;5034369;28;20152;-37
2022/06/30 04:21:52;;;;;;;5.85;3.50;;;;;;;;;;5034110;28;20026;-37
2022/06/30 04:24:17;;;;;;;9.65;3.97;;;;;;;;;;5034027;28;20099;-37
2022/06/30 04:26:43;;;;;;;14.20;3.50;;;;;;;;;;5034191;28;20017;-37
2022/06/30 04:29:08;;;;;;;5.65;3.30;;;;;;;;;;5033936;28;20017;-38
2022/06/30 04:34:17;;;;;;;16.65;4.43;;;;;;;;;;5033644;28;20044;-36
2022/06/30 04:36:42;;;;;;;10.43;4.10;;;;;;;;;;5032718;28;20025;-37
2022/06/30 04:39:08;;;;;;;6.95;3.45;;;;;;;;;;5033740;28;20112;-36
2022/06/30 04:41:33;;;;;;;16.60;4.65;;;;;;;;;;5033891;28;20013;-37
2022/06/30 04:43:59;;;;;;;6.47;3.40;;;;;;;;;;5033671;28;20025;-38
2022/06/30 04:46:25;;;;;;;7.88;3.72;;;;;;;;;;5033243;28;20052;-37
2022/06/30 04:48:51;;;;;;;8.82;3.45;;;;;;;;;;5033733;28;20018;-37
2022/06/30 04:51:16;;;;;;;12.82;4.18;;;;;;;;;;5033737;28;20022;-37
2022/06/30 04:53:42;;;;;;;10.88;3.83;;;;;;;;;;5033385;28;20116;-36
2022/06/30 04:56:08;;;;;;;14.02;3.63;;;;;;;;;;5033334;28;20013;-37
2022/06/30 04:58:33;;;;;;;12.27;3.90;;;;;;;;;;5033070;28;20063;-37
2022/06/30 05:00:58;;;;;;;14.02;4.30;;;;;;;;;;5033264;28;20388;-37
2022/06/30 05:03:24;;;;;;;9.68;4.07;;;;;;;;;;5033230;28;20108;-37
2022/06/30 05:05:49;;;;;;;10.93;4.00;;;;;;;;;;5033676;28;20056;-37
2022/06/30 05:08:15;;;;;;;11.43;3.92;;;;;;;;;;5033320;28;20026;-37
2022/06/30 05:10:40;;;;;;;9.43;3.58;;;;;;;;;;5033121;28;20021;-37
2022/06/30 05:13:07;;;;;;;7.90;3.30;;;;;;;;;;5033092;28;20033;-38
2022/06/30 05:15:33;;;;;;;20.10;4.45;;;;;;;;;;5032774;28;20025;-37
2022/06/30 05:17:58;;;;;;;20.65;4.38;;;;;;;;;;5033085;28;20021;-37
2022/06/30 05:20:24;;;;;;;5.53;3.55;;;;;;;;;;5033074;28;20168;-36
2022/06/30 05:22:49;;;;;;;12.18;3.63;;;;;;;;;;5033077;28;20013;-39
2022/06/30 05:27:58;;;;;;;7.03;3.85;;;;;;;;;;5032812;28;20576;-37
2022/06/30 05:30:24;;;;;;;10.45;3.53;;;;;;;;;;5033031;28;20116;-37
2022/06/30 05:32:49;;;;;;;10.68;4.35;;;;;;;;;;5032678;28;20507;-38
2022/06/30 05:35:14;;;;;;;18.23;3.88;;;;;;;;;;5032775;28;20033;-37
2022/06/30 05:37:40;;;;;;;23.17;4.70;;;;;;;;;;5032677;28;20029;-37
2022/06/30 05:40:06;;;;;;;13.40;3.97;;;;;;;;;;5032674;28;20049;-37
2022/06/30 05:42:31;;;;;;;20.25;4.43;;;;;;;;;;5032500;28;20025;-37
2022/06/30 05:44:57;;;;;;;12.65;4.15;;;;;;;;;;5030692;28;20032;-38
2022/06/30 05:47:22;;;;;;;10.20;4.00;;;;;;;;;;5035972;28;20057;-38
2022/06/30 05:49:47;;;;;;;16.83;3.93;;;;;;;;;;5035246;28;20072;-39
2022/06/30 05:52:13;;;;;;;14.27;3.30;;;;;;;;;;5035359;28;20381;-37
2022/06/30 05:54:38;;;;;;;13.05;3.83;;;;;;;;;;5032144;28;20044;-37
2022/06/30 05:57:04;;;;;;;12.98;4.15;;;;;;;;;;5031595;28;20464;-40
2022/06/30 05:59:32;;;;;;;24.70;4.15;;;;;;;;;;5030255;28;20502;-38
2022/06/30 06:01:57;;;;;;;15.80;3.80;;;;;;;;;;5038277;28;20415;-42
2022/06/30 06:04:22;;;;;;;14.25;3.53;;;;;;;;;;5028149;28;20266;-38
2022/06/30 06:06:48;;;;;;;14.50;3.38;;;;;;;;;;5028760;28;20033;-39
2022/06/30 06:09:13;;;;;;;17.27;3.90;;;;;;;;;;5024632;28;20029;-37
2022/06/30 06:11:38;;;;;;;10.32;3.45;;;;;;;;;;5010144;28;20243;-39
2022/06/30 06:14:04;;;;;;;8.80;3.40;;;;;;;;;;5010040;28;20065;-36
2022/06/30 06:16:29;;;;;;;8.98;3.50;;;;;;;;;;5020060;28;20239;-37
2022/06/30 06:18:54;;;;;;;8.77;3.37;;;;;;;;;;5023584;28;20028;-37
2022/06/30 06:21:20;;;;;;;6.63;3.10;;;;;;;;;;5021683;28;20380;-37
2022/06/30 06:23:45;;;;;;;5.50;3.58;;;;;;;;;;5029442;28;20452;-39
2022/06/30 06:26:11;;;;;;;8.23;2.80;;;;;;;;;;5027743;28;20024;-41
2022/06/30 06:31:20;;;;;;;9.00;3.30;;;;;;;;;;5025146;28;20060;-36
2022/06/30 06:33:48;;;;;;;7.65;3.15;;;;;;;;;;5031293;28;20064;-38
2022/06/30 06:36:13;;;;;;;8.63;3.53;;;;;;;;;;5030905;28;20480;-38
2022/06/30 06:38:39;;;;;;;12.80;3.88;;;;;;;;;;5023116;28;20025;-37
2022/06/30 06:41:07;;;;;;;8.52;3.03;;;;;;;;;;5016984;28;20457;-38
2022/06/30 06:43:33;;;;;;;8.35;3.67;;;;;;;;;;5011537;28;20018;-37
2022/06/30 06:45:58;;;;;;;5.30;3.15;;;;;;;;;;5011160;28;20045;-36
2022/06/30 06:48:24;;;;;;;9.05;3.30;;;;;;;;;;5019800;28;20022;-36
2022/06/30 06:50:49;;;;;;;11.50;3.22;;;;;;;;;;5037501;28;20376;-37
2022/06/30 06:53:14;;;;;;;16.75;3.53;;;;;;;;;;5032321;28;20086;-37
2022/06/30 06:55:40;;;;;;;14.60;4.07;;;;;;;;;;5044408;28;20048;-37
2022/06/30 06:58:05;;;;;;;11.02;3.90;;;;;;;;;;5038854;28;20310;-36
2022/06/30 07:00:31;;;;;;;14.15;3.40;;;;;;;;;;5029309;28;20368;-38
2022/06/30 07:02:56;;;;;;;17.63;3.92;;;;;;;;;;5029867;28;20076;-38
2022/06/30 07:05:22;;;;;;;9.23;3.20;;;;;;;;;;5030064;28;20026;-38
2022/06/30 07:07:55;;;;;;;13.65;3.35;;;;;;;;;;5043213;28;20245;-38
2022/06/30 07:10:20;;;;;;;14.50;3.13;;;;;;;;;;5048808;28;20025;-38
2022/06/30 07:12:45;;;;;;;8.23;2.57;;;;;;;;;;5050281;28;20043;-40
2022/06/30 07:15:11;;;;;;;13.63;3.60;;;;;;;;;;5049365;28;20281;-37
2022/06/30 07:17:36;;;;;;;11.23;3.03;;;;;;;;;;5028298;28;20104;-39
2022/06/30 07:20:02;;;;;;;8.02;3.10;;;;;;;;;;5024193;28;20301;-40
2022/06/30 07:22:27;;;;;;;11.85;3.17;;;;;;;;;;5027749;28;20104;-39
2022/06/30 07:24:52;;;;;;;4.40;2.73;;;;;;;;;;5030108;28;20444;-39
2022/06/30 07:27:18;;;;;;;9.93;3.75;;;;;;;;;;5033829;28;20255;-38
2022/06/30 07:29:43;;;;;;;9.90;3.10;;;;;;;;;;5034073;28;20057;-38
2022/06/30 07:32:09;;;;;;;8.77;2.67;;;;;;;;;;5033254;28;20042;-38
2022/06/30 07:34:34;;;;;;;6.95;2.35;;;;;;;;;;5034343;28;20265;-37
2022/06/30 07:37:00;;;;;;;12.88;2.80;;;;;;;;;;5033608;28;20068;-40
2022/06/30 07:39:25;;;;;;;7.32;3.38;;;;;;;;;;5034342;28;20415;-39
2022/06/30 07:41:50;;;;;;;8.80;2.83;;;;;;;;;;5033946;28;20013;-39
2022/06/30 07:44:15;;;;;;;8.82;3.17;;;;;;;;;;5033809;28;20258;-37
2022/06/30 07:46:41;;;;;;;9.80;3.17;;;;;;;;;;5032140;28;20033;-40
2022/06/30 07:49:06;;;;;;;9.70;2.90;;;;;;;;;;5032117;28;20239;-40
2022/06/30 07:51:32;;;;;;;14.32;2.72;;;;;;;;;;5027895;28;20044;-37
2022/06/30 07:53:57;;;;;;;57.88;41.28;;;;;;;;;;5033488;28;20045;-41
2022/06/30 07:56:23;;;;;;;6.55;2.75;;;;;;;;;;5031149;28;20025;-39
2022/06/30 07:58:49;;;;;;;5.85;2.30;;;;;;;;;;5023127;28;20033;-39
2022/06/30 08:01:14;;;;;;;7.85;2.70;;;;;;;;;;5022531;28;20026;-38
2022/06/30 08:03:40;;;;;;;8.47;2.67;;;;;;;;;;5013881;28;20703;-38
2022/06/30 08:06:05;;;;;;;140.65;76.70;;;;;;;;;;5012163;28;20718;-38
2022/06/30 08:08:31;;;;;;;58.63;43.70;;;;;;;;;;5030618;28;20026;-39
2022/06/30 08:10:56;;;;;;;202.60;143.10;;;;;;;;;;5031865;28;20025;-39
2022/06/30 08:13:21;;;;;;;17.63;4.57;;;;;;;;;;5032012;28;20477;-38
2022/06/30 08:15:46;;;;;;;7.30;2.65;;;;;;;;;;5032502;28;20250;-38
2022/06/30 08:18:12;;;;;;;3.40;2.63;;;;;;;;;;5031561;28;20024;-39
2022/06/30 08:20:37;;;;;;;6.10;2.30;;;;;;;;;;5033049;28;20097;-38
2022/06/30 08:23:03;;;;;;;122.63;48.38;;;;;;;;;;5032984;28;20025;-38
2022/06/30 08:25:28;;;;;;;4.80;2.50;;;;;;;;;;5031928;28;20026;-38
2022/06/30 08:27:54;;;;;;;3.80;2.40;;;;;;;;;;5031277;28;20025;-38
2022/06/30 08:30:19;;;;;;;7.50;2.47;;;;;;;;;;5033178;28;20100;-37
2022/06/30 08:32:44;;;;;;;9.00;2.63;;;;;;;;;;5032891;28;20053;-37
2022/06/30 08:35:10;;;;;;;5.80;2.70;;;;;;;;;;5033371;28;20044;-37
2022/06/30 08:37:35;;;;;;;5.88;2.20;;;;;;;;;;5031876;28;20536;-42
2022/06/30 08:42:46;;;;;;;6.47;2.55;;;;;;;;;;5033488;28;20352;-37
2022/06/30 08:45:17;;;;;;;10.15;2.85;;;;;;;;;;5033213;28;20018;-38
2022/06/30 08:47:42;;;;;;;15.43;5.28;;;;;;;;;;5032361;28;20021;-39
2022/06/30 08:50:08;;;;;;;19.00;3.10;;;;;;;;;;5032987;28;20032;-40
2022/06/30 08:52:40;;;;;;;5.43;2.58;;;;;;;;;;5032923;28;20033;-38
2022/06/30 08:55:06;;;;;;;5.00;2.33;;;;;;;;;;5032180;28;20028;-38
2022/06/30 08:57:32;;;;;;;8.63;2.92;;;;;;;;;;5032580;28;20499;-41
2022/06/30 08:59:58;;;;;;;3.42;2.20;;;;;;;;;;5030468;28;20028;-39
2022/06/30 09:02:23;;;;;;;8.45;2.95;;;;;;;;;;5032361;28;20034;-39
2022/06/30 09:04:48;;;;;;;6.68;2.70;;;;;;;;;;5032574;28;20024;-38
2022/06/30 09:07:14;;;;;;;16.33;2.90;;;;;;;;;;5032359;28;20057;-37
2022/06/30 09:09:39;;;;;;;4.22;2.20;;;;;;;;;;5032131;28;20338;-40
2022/06/30 09:12:13;;;;;;;5.53;2.50;;;;;;;;;;5024981;28;20068;-38
2022/06/30 09:14:40;;;;;;;8.88;3.30;;;;;;;;;;5026934;28;20039;-39
2022/06/30 09:17:06;;;;;;;4.18;2.55;;;;;;;;;;5031913;28;20030;-38
2022/06/30 09:19:33;;;;;;;7.68;2.40;;;;;;;;;;5032093;28;20021;-37
2022/06/30 09:22:02;;;;;;;8.57;2.45;;;;;;;;;;5031931;28;20029;-38
2022/06/30 09:24:27;;;;;;;12.02;2.75;;;;;;;;;;5032265;28;20062;-38
2022/06/30 09:27:13;;;;;;;7.25;2.13;;;;;;;;;;5024481;28;20456;-38
2022/06/30 09:29:52;;;;;;;5.65;2.10;;;;;;;;;;5015025;28;20088;-42
2022/06/30 09:32:18;;;;;;;3.90;2.08;;;;;;;;;;5012290;28;20057;-39
2022/06/30 09:34:44;;;;;;;5.30;2.15;;;;;;;;;;5013222;28;20109;-39
2022/06/30 09:37:16;;;;;;;8.68;2.40;;;;;;;;;;5028772;28;20126;-38
2022/06/30 09:39:45;;;;;;;8.27;2.88;;;;;;;;;;5016942;28;20018;-38
2022/06/30 09:42:11;;;;;;;5.85;2.35;;;;;;;;;;5027716;28;20029;-38
2022/06/30 09:44:36;;;;;;;9.10;3.17;;;;;;;;;;5031146;28;20034;-38
2022/06/30 09:47:01;;;;;;;5.97;2.47;;;;;;;;;;5030957;28;20053;-38
2022/06/30 09:49:28;;;;;;;6.70;2.60;;;;;;;;;;5030304;28;20029;-38
2022/06/30 09:51:53;;;;;;;9.77;2.47;;;;;;;;;;5031850;28;20297;-38
2022/06/30 09:54:18;;;;;;;11.30;2.45;;;;;;;;;;5031573;28;20501;-38
2022/06/30 09:56:59;;;;;;;5.07;2.20;;;;;;;;;;5030149;28;20026;-41
2022/06/30 09:59:24;;;;;;;4.35;2.10;;;;;;;;;;5031062;28;20105;-37
2022/06/30 10:01:54;;;;;;;5.20;2.15;;;;;;;;;;5031086;28;20079;-39
2022/06/30 10:04:19;;;;;;;3.90;1.90;;;;;;;;;;5024860;28;20346;-38
2022/06/30 10:06:45;;;;;;;4.47;2.08;;;;;;;;;;5030648;28;20440;-37
2022/06/30 10:09:14;;;;;;;2.92;2.35;;;;;;;;;;5030889;28;20461;-39
2022/06/30 10:11:39;;;;;;;5.28;2.78;;;;;;;;;;5031658;28;20018;-38
2022/06/30 10:14:05;;;;;;;3.15;2.13;;;;;;;;;;5029581;28;20025;-39
2022/06/30 10:16:31;;;;;;;6.82;2.40;;;;;;;;;;5024807;28;20021;-38
2022/06/30 10:18:57;;;;;;;13.60;2.60;;;;;;;;;;5011577;28;20022;-39
2022/06/30 10:21:22;;;;;;;7.57;2.45;;;;;;;;;;5025163;28;20021;-38
2022/06/30 10:23:49;;;;;;;7.50;2.35;;;;;;;;;;5031338;28;20028;-40
2022/06/30 10:29:00;;;;;;;7.38;2.70;;;;;;;;;;5013034;28;20153;-38
2022/06/30 10:31:29;;;;;;;15.27;2.53;;;;;;;;;;5011577;28;20114;-38
2022/06/30 10:33:54;;;;;;;3.67;2.63;;;;;;;;;;5011747;28;20041;-37
2022/06/30 10:36:25;;;;;;;9.77;2.77;;;;;;;;;;5017057;28;20025;-39
2022/06/30 10:38:51;;;;;;;8.98;2.38;;;;;;;;;;5015295;28;20273;-38
2022/06/30 10:41:17;;;;;;;9.07;2.13;;;;;;;;;;5011380;28;20014;-37
2022/06/30 10:44:02;;;;;;;6.75;2.35;;;;;;;;;;5019335;28;20250;-38
2022/06/30 10:46:27;;;;;;;11.48;2.70;;;;;;;;;;5029044;28;20030;-41
2022/06/30 10:48:56;;;;;;;6.23;2.40;;;;;;;;;;5019132;28;20029;-38
2022/06/30 10:51:25;;;;;;;6.10;2.17;;;;;;;;;;5011373;28;20239;-38
2022/06/30 10:53:55;;;;;;;4.18;2.50;;;;;;;;;;5011408;28;20049;-38
2022/06/30 10:56:21;;;;;;;5.70;2.63;;;;;;;;;;5010762;28;20025;-38
2022/06/30 10:59:06;;;;;;;12.25;2.58;;;;;;;;;;5017512;28;20029;-38
2022/06/30 11:01:31;;;;;;;9.45;2.42;;;;;;;;;;5015953;28;20021;-38
2022/06/30 11:03:57;;;;;;;5.13;2.38;;;;;;;;;;5028903;28;20022;-37
2022/06/30 11:06:26;;;;;;;6.75;2.92;;;;;;;;;;5033781;28;20026;-38
2022/06/30 11:08:57;;;;;;;;;;;;;;;;;;5032752;28;20021;-38
2022/06/30 11:11:23;;;;;;;7.35;2.47;;;;;;;;;;5034863;28;20287;-38
2022/06/30 11:14:01;;;;;;;6.53;2.70;;;;;;;;;;5028287;28;20037;-42
2022/06/30 11:16:27;;;;;;;6.30;2.83;;;;;;;;;;5024678;28;20029;-42
2022/06/30 11:18:52;;;;;;;11.25;2.85;;;;;;;;;;5022025;28;20030;-38
2022/06/30 11:21:17;;;;;;;45.57;4.33;;;;;;;;;;5030464;28;20024;-38
2022/06/30 11:23:46;;;;;;;6.70;2.63;;;;;;;;;;5034375;28;20242;-38
2022/06/30 11:28:57;;;;;;;5.47;2.15;;;;;;;;;;5034325;28;20471;-37
2022/06/30 11:31:35;;;;;;;7.00;2.30;;;;;;;;;;5034823;28;20100;-38
2022/06/30 11:34:00;;;;;;;12.00;2.53;;;;;;;;;;5034103;28;20057;-39
2022/06/30 11:36:26;;;;;;;14.10;3.13;;;;;;;;;;5034472;28;20021;-38
2022/06/30 11:38:53;;;;;;;4.63;2.17;;;;;;;;;;5033954;28;20441;-38
2022/06/30 11:44:05;;;;;;;4.47;2.45;;;;;;;;;;5034323;28;20125;-38
2022/06/30 11:46:30;;;;;;;6.13;2.57;;;;;;;;;;5033731;28;20676;-40
2022/06/30 11:48:58;;;;;;;9.57;2.90;;;;;;;;;;5033524;28;20032;-41
2022/06/30 11:51:24;;;;;;;10.20;3.00;;;;;;;;;;5034296;28;20793;-37
2022/06/30 11:53:51;;;;;;;6.80;2.45;;;;;;;;;;5033591;28;20056;-40
2022/06/30 11:56:16;;;;;;;17.80;3.17;;;;;;;;;;5033382;28;20531;-39
2022/06/30 11:58:42;;;;;;;8.23;3.33;;;;;;;;;;5033044;28;20072;-38
2022/06/30 12:01:11;;;;;;;8.68;2.80;;;;;;;;;;5033768;28;20388;-38
2022/06/30 12:03:37;;;;;;;11.52;3.20;;;;;;;;;;5034090;28;20028;-38
2022/06/30 12:06:02;;;;;;;11.45;2.95;;;;;;;;;;5034022;28;20025;-39
2022/06/30 12:08:27;;;;;;;7.78;2.50;;;;;;;;;;5033161;28;20024;-37
2022/06/30 12:10:56;;;;;;;14.03;3.37;;;;;;;;;;5033540;28;20014;-38
2022/06/30 12:13:24;;;;;;;10.35;3.25;;;;;;;;;;5032593;28;20337;-37
2022/06/30 12:15:51;;;;;;;9.73;2.55;;;;;;;;;;5033140;28;20025;-39
2022/06/30 12:18:17;;;;;;;8.25;3.03;;;;;;;;;;5032966;28;20075;-40
2022/06/30 12:20:43;;;;;;;28.25;4.40;;;;;;;;;;5033517;28;20017;-37
2022/06/30 12:23:09;;;;;;;7.90;2.97;;;;;;;;;;5033642;28;20013;-40
2022/06/30 12:25:34;;;;;;;14.40;3.92;;;;;;;;;;5033252;28;20021;-38
2022/06/30 12:28:01;;;;;;;8.57;2.40;;;;;;;;;;5032747;28;20053;-42
2022/06/30 12:30:35;;;;;;;9.65;2.60;;;;;;;;;;5033083;28;20024;-38
2022/06/30 12:33:03;;;;;;;12.70;2.85;;;;;;;;;;5033450;28;20049;-40
2022/06/30 12:35:32;;;;;;;5.05;2.80;;;;;;;;;;5032858;28;20018;-39
2022/06/30 12:38:07;;;;;;;5.70;2.80;;;;;;;;;;5032789;28;20033;-38
2022/06/30 12:40:36;;;;;;;8.05;2.80;;;;;;;;;;5033062;28;20449;-39
2022/06/30 12:43:02;;;;;;;12.02;3.60;;;;;;;;;;5033128;28;20033;-37
2022/06/30 12:45:45;;;;;;;12.02;3.22;;;;;;;;;;5032607;28;20488;-38
2022/06/30 12:48:12;;;;;;;9.98;2.72;;;;;;;;;;5032197;28;20060;-38
2022/06/30 12:50:38;;;;;;;9.38;2.78;;;;;;;;;;5030190;28;20469;-38
2022/06/30 12:53:22;;;;;;;7.13;2.80;;;;;;;;;;5029636;28;20487;-40
2022/06/30 12:56:02;;;;;;;6.18;2.70;;;;;;;;;;5028251;28;20049;-39
2022/06/30 12:58:41;;;;;;;9.85;2.60;;;;;;;;;;5030849;28;20028;-38
2022/06/30 13:01:06;;;;;;;9.30;3.25;;;;;;;;;;5029891;28;20461;-38
2022/06/30 13:03:32;;;;;;;6.60;2.80;;;;;;;;;;5020542;28;20030;-43
2022/06/30 13:05:59;;;;;;;10.60;2.90;;;;;;;;;;5030907;28;20262;-38
2022/06/30 13:08:24;;;;;;;6.53;2.50;;;;;;;;;;5045557;28;20017;-39
2022/06/30 13:11:05;;;;;;;6.10;2.63;;;;;;;;;;5049649;28;20078;-38
2022/06/30 13:13:30;;;;;;;6.45;2.90;;;;;;;;;;5052540;28;20128;-40
2022/06/30 13:15:55;;;;;;;5.70;2.60;;;;;;;;;;5048219;28;20100;-39
2022/06/30 13:18:21;;;;;;;5.67;2.47;;;;;;;;;;5031495;28;20085;-38
2022/06/30 13:20:46;;;;;;;5.50;2.67;;;;;;;;;;5031971;28;20255;-37
2022/06/30 13:23:11;;;;;;;10.50;2.80;;;;;;;;;;5028485;28;20079;-39
2022/06/30 13:25:36;;;;;;;14.33;3.27;;;;;;;;;;5032186;28;20255;-41
2022/06/30 13:28:02;;;;;;;7.23;3.40;;;;;;;;;;5036814;28;20052;-39
2022/06/30 13:30:27;;;;;;;7.57;2.73;;;;;;;;;;5033111;28;20021;-39
2022/06/30 13:32:52;;;;;;;6.20;2.85;;;;;;;;;;5031835;28;20374;-41
2022/06/30 13:35:18;;;;;;;6.70;3.00;;;;;;;;;;5030438;28;20469;-39
2022/06/30 13:37:43;;;;;;;7.28;2.72;;;;;;;;;;5026552;28;20021;-39
2022/06/30 13:40:09;;;;;;;9.03;2.87;;;;;;;;;;5012141;28;20022;-41
2022/06/30 13:42:34;;;;;;;5.53;3.13;;;;;;;;;;5026211;28;20269;-38
2022/06/30 13:44:59;;;;;;;7.13;3.00;;;;;;;;;;5028078;28;20040;-42
2022/06/30 13:47:25;;;;;;;5.57;2.58;;;;;;;;;;5028449;28;20024;-38
2022/06/30 13:49:50;;;;;;;9.18;2.75;;;;;;;;;;5029331;28;20472;-39
2022/06/30 13:52:15;;;;;;;7.80;2.60;;;;;;;;;;5027035;28;20040;-38
2022/06/30 13:54:41;;;;;;;7.03;2.20;;;;;;;;;;5028561;28;20376;-39
2022/06/30 13:57:09;;;;;;;10.07;2.63;;;;;;;;;;5030104;28;20381;-38
2022/06/30 13:59:34;;;;;;;14.05;2.75;;;;;;;;;;5027796;28;20028;-40
2022/06/30 14:02:00;;;;;;;12.50;2.42;;;;;;;;;;5029763;28;20037;-42
2022/06/30 14:04:26;;;;;;;7.30;2.60;;;;;;;;;;5028587;28;20102;-39
2022/06/30 14:06:51;;;;;;;7.93;2.25;;;;;;;;;;5029091;28;20131;-42
2022/06/30 14:09:16;;;;;;;5.65;2.60;;;;;;;;;;5028059;28;20029;-39
2022/06/30 14:11:42;;;;;;;6.87;2.70;;;;;;;;;;5028534;28;20025;-40
2022/06/30 14:14:07;;;;;;;13.15;3.08;;;;;;;;;;5030085;28;20302;-39
2022/06/30 14:16:33;;;;;;;12.13;3.03;;;;;;;;;;5028923;28;20100;-41
2022/06/30 14:18:58;;;;;;;6.55;2.80;;;;;;;;;;5028691;28;20267;-40
2022/06/30 14:21:24;;;;;;;5.13;2.70;;;;;;;;;;5028404;28;20037;-41
2022/06/30 14:23:49;;;;;;;13.55;3.22;;;;;;;;;;5028211;28;20029;-40
2022/06/30 14:26:15;;;;;;;9.00;2.90;;;;;;;;;;5030836;28;20083;-39
2022/06/30 14:28:40;;;;;;;9.45;2.67;;;;;;;;;;5035186;28;20516;-39
2022/06/30 14:31:06;;;;;;;7.85;2.92;;;;;;;;;;5043393;28;20032;-42
2022/06/30 14:33:31;;;;;;;9.38;2.22;;;;;;;;;;5034644;28;20041;-39
2022/06/30 14:35:56;;;;;;;8.97;2.90;;;;;;;;;;5048555;28;20061;-39
2022/06/30 14:38:22;;;;;;;9.63;3.13;;;;;;;;;;5049422;28;20254;-39
2022/06/30 14:40:47;;;;;;;8.97;2.93;;;;;;;;;;5051080;28;20018;-40
2022/06/30 14:43:13;;;;;;;13.20;2.88;;;;;;;;;;5050764;28;20258;-38
2022/06/30 14:45:38;;;;;;;7.40;2.83;;;;;;;;;;5050544;28;20017;-42
2022/06/30 14:48:04;;;;;;;5.70;3.00;;;;;;;;;;5049455;28;20017;-40
2022/06/30 14:50:29;;;;;;;12.77;3.50;;;;;;;;;;5049603;28;20033;-41
2022/06/30 14:52:55;;;;;;;6.57;2.85;;;;;;;;;;5047974;28;20054;-39
2022/06/30 14:55:21;;;;;;;7.82;3.00;;;;;;;;;;5047974;28;20119;-40
2022/06/30 14:57:48;;;;;;;9.63;3.35;;;;;;;;;;5047794;28;20029;-39